Time;durP1;ratioP1;P1;durP2;ratioP2;P2;SDS_P1;SDS_P2;PMS_P1;PMS_P2;Temp;Humidity;BMP_temperature;BMP_pressure;BME280_temperature;BME280_humidity;BME280_pressure;Samples;Min_cycle;Max_cycle;Signal;HPM_P1;HPM_P2
2022/12/31 00:01:10;;;;;;;1.60;1.50;;;10.80;99.90;;;;;;5076552;28;20197;-74
2022/12/31 00:03:37;;;;;;;3.00;2.50;;;10.80;99.90;;;;;;5076728;28;20242;-75
2022/12/31 00:06:14;;;;;;;5.20;3.83;;;10.80;99.90;;;;;;5076803;28;20246;-75
2022/12/31 00:08:40;;;;;;;1.90;1.60;;;10.80;99.90;;;;;;5076567;28;20221;-75
2022/12/31 00:11:07;;;;;;;3.87;1.90;;;10.90;99.90;;;;;;5076542;28;20201;-74
2022/12/31 00:13:36;;;;;;;3.20;1.83;;;10.80;99.90;;;;;;5076353;28;20201;-74
2022/12/31 00:16:07;;;;;;;1.70;1.60;;;10.80;99.90;;;;;;5076248;28;20200;-74
2022/12/31 00:18:34;;;;;;;2.90;1.60;;;10.90;99.90;;;;;;5076410;28;20227;-75
2022/12/31 00:21:04;;;;;;;1.83;1.50;;;10.90;99.90;;;;;;5076634;28;20599;-75
2022/12/31 00:23:31;;;;;;;1.73;1.50;;;10.90;99.90;;;;;;5076705;28;20251;-75
2022/12/31 00:26:02;;;;;;;1.63;1.50;;;10.90;99.90;;;;;;5076454;28;20255;-74
2022/12/31 00:28:29;;;;;;;2.10;1.70;;;10.90;99.90;;;;;;5076882;28;20224;-75
2022/12/31 00:30:57;;;;;;;1.70;1.40;;;11.00;99.90;;;;;;5076697;28;20201;-75
2022/12/31 00:33:23;;;;;;;1.60;1.47;;;11.00;99.90;;;;;;5076399;28;20201;-75
2022/12/31 00:35:50;;;;;;;1.50;1.40;;;11.00;99.90;;;;;;5076442;28;20204;-75
2022/12/31 00:38:16;;;;;;;1.67;1.57;;;11.00;99.90;;;;;;5076782;28;20205;-75
2022/12/31 00:40:43;;;;;;;1.70;1.60;;;11.00;99.90;;;;;;5076738;28;20603;-75
2022/12/31 00:43:10;;;;;;;1.57;1.27;;;11.00;99.90;;;;;;5076708;28;20246;-75
2022/12/31 00:45:36;;;;;;;2.73;1.63;;;11.00;99.90;;;;;;5076422;28;20201;-76
2022/12/31 00:48:05;;;;;;;2.37;1.30;;;11.00;99.90;;;;;;5076117;28;20840;-76
2022/12/31 00:50:31;;;;;;;1.60;1.33;;;10.90;99.90;;;;;;5076540;28;20201;-75
2022/12/31 00:52:58;;;;;;;1.60;1.50;;;11.00;99.90;;;;;;5077277;28;20197;-75
2022/12/31 00:55:24;;;;;;;1.73;1.40;;;11.00;99.90;;;;;;5077137;28;20193;-74
2022/12/31 00:57:51;;;;;;;2.57;1.53;;;11.00;99.90;;;;;;5076730;28;20757;-74
2022/12/31 01:00:18;;;;;;;1.87;1.37;;;10.90;99.90;;;;;;5077973;28;20258;-74
2022/12/31 01:02:44;;;;;;;3.00;2.10;;;11.00;99.90;;;;;;5077876;28;20557;-75
2022/12/31 01:05:12;;;;;;;1.70;1.50;;;10.90;99.90;;;;;;5077583;28;20197;-76
2022/12/31 01:07:39;;;;;;;2.30;1.60;;;10.90;99.90;;;;;;5077562;28;20239;-74
2022/12/31 01:10:06;;;;;;;3.20;1.43;;;10.80;99.90;;;;;;5076453;28;20197;-74
2022/12/31 01:12:33;;;;;;;2.00;1.50;;;10.80;99.90;;;;;;5076474;28;20741;-74
2022/12/31 01:15:00;;;;;;;4.13;1.50;;;10.70;99.90;;;;;;5077212;28;20223;-74
2022/12/31 01:17:26;;;;;;;2.17;1.50;;;10.60;99.90;;;;;;5077379;28;20258;-74
2022/12/31 01:19:53;;;;;;;1.80;1.70;;;10.60;99.90;;;;;;5076497;28;20197;-74
2022/12/31 01:22:21;;;;;;;4.70;3.03;;;10.60;99.90;;;;;;5076109;28;20197;-74
2022/12/31 01:24:47;;;;;;;2.77;2.27;;;10.50;99.90;;;;;;5076466;28;20258;-73
2022/12/31 01:27:14;;;;;;;2.00;1.80;;;10.50;99.90;;;;;;5076713;28;20219;-73
2022/12/31 01:29:41;;;;;;;1.70;1.60;;;10.50;99.90;;;;;;5076559;28;20526;-74
2022/12/31 01:32:07;;;;;;;1.70;1.53;;;10.50;99.90;;;;;;5076290;28;20255;-75
2022/12/31 01:34:34;;;;;;;2.17;1.60;;;10.50;99.90;;;;;;5076190;28;20201;-74
2022/12/31 01:37:00;;;;;;;1.67;1.57;;;10.50;99.90;;;;;;5076226;28;20201;-74
2022/12/31 01:39:28;;;;;;;1.97;1.73;;;10.50;99.90;;;;;;5076398;28;20193;-75
2022/12/31 01:41:55;;;;;;;2.43;1.77;;;10.50;99.90;;;;;;5078836;28;20220;-75
2022/12/31 01:44:51;;;;;;;2.43;1.60;;;10.50;99.90;;;;;;5076959;28;20661;-74
2022/12/31 01:47:24;;;;;;;3.10;1.80;;;10.50;99.90;;;;;;5077108;28;20201;-74
2022/12/31 01:49:55;;;;;;;2.57;1.70;;;10.50;99.90;;;;;;5076828;28;20270;-74
2022/12/31 01:52:26;;;;;;;3.17;1.80;;;10.50;99.90;;;;;;5078920;28;20255;-74
2022/12/31 01:54:57;;;;;;;1.70;1.60;;;10.50;99.90;;;;;;5077850;28;20259;-75
2022/12/31 01:57:25;;;;;;;2.10;1.73;;;10.50;99.90;;;;;;5078200;28;20279;-74
2022/12/31 01:59:54;;;;;;;4.37;1.43;;;10.60;99.90;;;;;;5078409;28;20248;-74
2022/12/31 02:02:20;;;;;;;1.70;1.60;;;10.60;99.90;;;;;;5079238;28;20947;-74
2022/12/31 02:04:50;;;;;;;1.70;1.50;;;10.60;99.90;;;;;;5078793;28;20205;-75
2022/12/31 02:07:17;;;;;;;1.70;1.60;;;10.60;99.90;;;;;;5082700;28;20193;-75
2022/12/31 02:09:44;;;;;;;3.33;1.90;;;10.70;99.90;;;;;;5083815;28;20242;-74
2022/12/31 02:12:12;;;;;;;3.43;1.63;;;10.60;99.90;;;;;;5083701;28;20201;-75
2022/12/31 02:14:41;;;;;;;1.77;1.60;;;10.60;99.90;;;;;;5083500;28;20287;-74
2022/12/31 02:17:16;;;;;;;1.70;1.50;;;10.60;99.90;;;;;;5082803;28;20231;-75
2022/12/31 02:20:19;;;;;;;3.27;1.80;;;10.60;99.90;;;;;;5082524;28;20246;-75
2022/12/31 02:23:19;;;;;;;2.77;1.93;;;10.60;99.90;;;;;;5082708;28;20197;-74
2022/12/31 02:26:15;;;;;;;1.90;1.57;;;10.60;99.90;;;;;;5082087;28;20192;-73
2022/12/31 02:29:03;;;;;;;2.40;1.80;;;10.70;99.90;;;;;;5077573;28;20224;-74
2022/12/31 02:31:34;;;;;;;3.43;1.97;;;10.70;99.90;;;;;;5074735;28;20197;-74
2022/12/31 02:34:06;;;;;;;2.00;1.50;;;10.70;99.90;;;;;;5075668;28;20205;-73
2022/12/31 02:36:37;;;;;;;3.67;1.83;;;10.70;99.90;;;;;;5074999;28;20200;-74
2022/12/31 02:39:05;;;;;;;1.97;1.80;;;10.80;99.90;;;;;;5073997;28;20204;-74
2022/12/31 02:41:50;;;;;;;2.57;1.83;;;10.80;99.90;;;;;;5073644;28;20197;-74
2022/12/31 02:44:28;;;;;;;2.57;1.57;;;10.80;99.90;;;;;;5077426;28;20201;-74
2022/12/31 02:47:09;;;;;;;1.80;1.60;;;10.90;99.90;;;;;;5082435;28;20201;-74
2022/12/31 02:49:46;;;;;;;1.87;1.70;;;10.90;99.90;;;;;;5082619;28;20299;-74
2022/12/31 02:52:20;;;;;;;2.40;1.57;;;10.90;99.90;;;;;;5075261;28;20192;-74
2022/12/31 02:54:55;;;;;;;8.73;1.90;;;11.00;99.90;;;;;;5073994;28;20197;-74
2022/12/31 02:57:29;;;;;;;2.23;1.80;;;11.00;99.90;;;;;;5073470;28;20264;-74
2022/12/31 03:02:52;;;;;;;1.50;1.30;;;11.20;99.90;;;;;;5053648;28;20288;-74
2022/12/31 03:05:22;;;;;;;2.33;1.40;;;11.20;99.90;;;;;;5074104;28;20201;-73
2022/12/31 03:07:49;;;;;;;3.43;1.60;;;11.30;99.90;;;;;;5073556;28;20266;-74
2022/12/31 03:10:16;;;;;;;1.90;1.50;;;11.30;99.90;;;;;;5073598;28;20205;-74
2022/12/31 03:12:46;;;;;;;1.60;1.50;;;11.30;99.90;;;;;;5073068;28;20197;-74
2022/12/31 03:15:21;;;;;;;1.30;1.20;;;11.30;99.90;;;;;;5074026;28;20255;-74
2022/12/31 03:17:51;;;;;;;1.27;1.17;;;11.30;99.90;;;;;;5073849;28;20200;-74
2022/12/31 03:23:05;;;;;;;1.30;1.20;;;11.30;99.90;;;;;;5073525;28;20195;-74
2022/12/31 03:25:34;;;;;;;1.47;1.33;;;11.30;99.90;;;;;;5073522;28;20254;-74
2022/12/31 03:28:02;;;;;;;1.30;1.20;;;11.40;99.90;;;;;;5073331;28;20224;-75
2022/12/31 03:30:30;;;;;;;2.50;1.40;;;11.30;99.90;;;;;;5073475;28;20194;-75
2022/12/31 03:32:58;;;;;;;2.53;1.07;;;11.40;99.90;;;;;;5074081;28;20231;-75
2022/12/31 03:35:27;;;;;;;1.70;1.40;;;11.40;99.90;;;;;;5077668;28;20201;-75
2022/12/31 03:37:55;;;;;;;1.23;1.13;;;11.30;99.90;;;;;;5077186;28;20197;-75
2022/12/31 03:40:23;;;;;;;4.13;1.40;;;11.40;99.90;;;;;;5077367;28;20200;-75
2022/12/31 03:42:49;;;;;;;1.83;1.20;;;11.40;99.90;;;;;;5077151;28;20251;-75
2022/12/31 03:45:16;;;;;;;1.23;1.13;;;11.20;99.90;;;;;;5077144;28;20250;-75
2022/12/31 03:47:43;;;;;;;1.20;1.10;;;11.30;99.90;;;;;;5077459;28;20201;-75
2022/12/31 03:50:13;;;;;;;2.60;1.10;;;11.40;99.90;;;;;;5077261;28;20225;-75
2022/12/31 03:52:40;;;;;;;1.47;1.30;;;11.50;99.90;;;;;;5077540;28;20208;-75
2022/12/31 03:55:07;;;;;;;1.53;1.30;;;11.50;99.90;;;;;;5077362;28;20246;-75
2022/12/31 03:57:34;;;;;;;1.30;1.10;;;11.60;99.90;;;;;;5077072;28;20229;-76
2022/12/31 04:00:01;;;;;;;1.73;1.27;;;11.60;99.90;;;;;;5076976;28;20200;-75
2022/12/31 04:02:27;;;;;;;1.77;1.20;;;11.70;99.90;;;;;;5076888;28;20201;-75
2022/12/31 04:04:54;;;;;;;3.13;1.20;;;11.70;99.90;;;;;;5076921;28;20266;-76
2022/12/31 04:07:23;;;;;;;1.13;1.03;;;11.80;99.90;;;;;;5076921;28;20232;-75
2022/12/31 04:09:49;;;;;;;2.10;1.33;;;11.80;99.90;;;;;;5076602;28;20276;-75
2022/12/31 04:12:16;;;;;;;1.40;1.23;;;11.70;99.90;;;;;;5076697;28;20556;-75
2022/12/31 04:14:42;;;;;;;1.57;1.20;;;11.70;99.90;;;;;;5076354;28;20259;-75
2022/12/31 04:17:09;;;;;;;1.50;1.30;;;11.80;99.90;;;;;;5076597;28;20192;-75
2022/12/31 04:19:36;;;;;;;3.97;1.43;;;11.90;99.90;;;;;;5076476;28;20197;-75
2022/12/31 04:22:03;;;;;;;3.90;1.13;;;11.90;99.90;;;;;;5076847;28;20208;-75
2022/12/31 04:24:31;;;;;;;1.80;1.20;;;11.90;99.90;;;;;;5076597;28;20196;-76
2022/12/31 04:26:57;;;;;;;1.00;1.00;;;11.90;99.90;;;;;;5077366;28;20224;-75
2022/12/31 04:29:24;;;;;;;1.40;1.30;;;11.90;99.90;;;;;;5076086;28;20221;-75
2022/12/31 04:31:51;;;;;;;1.67;1.30;;;11.90;99.90;;;;;;5076292;28;20262;-75
2022/12/31 04:34:17;;;;;;;2.53;1.23;;;12.00;99.90;;;;;;5076274;28;20201;-75
2022/12/31 04:36:44;;;;;;;4.60;1.23;;;12.00;99.90;;;;;;5076322;28;20193;-75
2022/12/31 04:39:11;;;;;;;3.17;1.57;;;12.10;99.90;;;;;;5076197;28;20652;-75
2022/12/31 04:41:39;;;;;;;1.43;1.27;;;12.10;99.90;;;;;;5076147;28;20197;-75
2022/12/31 04:44:05;;;;;;;4.10;1.40;;;12.00;99.90;;;;;;5075432;28;20197;-76
2022/12/31 04:46:33;;;;;;;1.80;1.20;;;12.00;99.90;;;;;;5076040;28;20201;-73
2022/12/31 04:49:00;;;;;;;1.40;1.20;;;11.90;99.90;;;;;;5076698;28;20248;-75
2022/12/31 04:51:28;;;;;;;1.20;1.10;;;12.00;99.90;;;;;;5076211;28;20223;-75
2022/12/31 04:53:55;;;;;;;1.90;1.50;;;12.20;99.90;;;;;;5076227;28;20205;-75
2022/12/31 04:56:22;;;;;;;2.60;1.00;;;12.10;99.90;;;;;;5076981;28;20594;-75
2022/12/31 04:58:50;;;;;;;1.80;1.30;;;12.20;99.90;;;;;;5076017;28;20274;-75
2022/12/31 05:01:16;;;;;;;1.73;1.30;;;12.20;99.90;;;;;;5075488;28;20246;-75
2022/12/31 05:03:43;;;;;;;2.10;1.47;;;12.20;99.90;;;;;;5075890;28;20219;-75
2022/12/31 05:06:13;;;;;;;2.50;1.00;;;12.10;99.90;;;;;;5075461;28;20197;-74
2022/12/31 05:08:40;;;;;;;2.30;1.13;;;12.20;99.90;;;;;;5075394;28;20278;-75
2022/12/31 05:11:06;;;;;;;1.37;1.27;;;12.30;99.90;;;;;;5075401;28;20193;-75
2022/12/31 05:13:34;;;;;;;1.93;1.30;;;12.30;99.90;;;;;;5075353;28;20262;-75
2022/12/31 05:16:03;;;;;;;3.03;1.33;;;12.10;99.90;;;;;;5075521;28;20197;-75
2022/12/31 05:18:30;;;;;;;2.60;1.20;;;12.20;99.90;;;;;;5075352;28;20247;-75
2022/12/31 05:20:57;;;;;;;2.13;1.20;;;12.20;99.90;;;;;;5075285;28;20197;-74
2022/12/31 05:23:24;;;;;;;3.33;1.30;;;12.40;99.90;;;;;;5075220;28;20251;-74
2022/12/31 05:25:51;;;;;;;2.77;1.30;;;12.40;99.90;;;;;;5075019;28;20201;-74
2022/12/31 05:28:18;;;;;;;1.60;1.20;;;12.50;99.90;;;;;;5074854;28;20197;-75
2022/12/31 05:30:47;;;;;;;1.90;1.30;;;12.50;99.90;;;;;;5074962;28;20193;-75
2022/12/31 05:33:15;;;;;;;1.97;1.20;;;12.50;99.90;;;;;;5074767;28;20713;-73
2022/12/31 05:35:42;;;;;;;2.07;1.20;;;12.60;99.90;;;;;;5074963;28;20246;-74
2022/12/31 05:38:08;;;;;;;3.53;1.30;;;12.70;99.90;;;;;;5074829;28;20197;-74
2022/12/31 05:40:35;;;;;;;1.37;1.13;;;12.70;99.90;;;;;;5074502;28;20201;-74
2022/12/31 05:43:01;;;;;;;2.03;1.30;;;12.80;99.90;;;;;;5074652;28;20201;-74
2022/12/31 05:45:28;;;;;;;1.20;1.10;;;12.80;99.90;;;;;;5074596;28;20196;-74
2022/12/31 05:47:55;;;;;;;1.63;1.10;;;12.80;99.90;;;;;;5074880;28;20251;-74
2022/12/31 05:50:23;;;;;;;1.20;1.07;;;12.90;99.90;;;;;;5074472;28;20270;-74
2022/12/31 05:52:49;;;;;;;2.80;1.10;;;12.90;99.90;;;;;;5074579;28;20247;-75
2022/12/31 05:55:16;;;;;;;3.10;1.43;;;13.00;99.90;;;;;;5074289;28;20250;-75
2022/12/31 05:57:42;;;;;;;1.13;1.03;;;13.10;99.90;;;;;;5073942;28;20580;-74
2022/12/31 06:00:10;;;;;;;1.20;1.10;;;13.00;99.90;;;;;;5074577;28;20201;-74
2022/12/31 06:02:37;;;;;;;1.47;1.27;;;13.20;99.90;;;;;;5074313;28;20201;-75
2022/12/31 06:05:04;;;;;;;1.23;1.13;;;13.20;99.90;;;;;;5074139;28;20799;-74
2022/12/31 06:07:32;;;;;;;1.23;1.07;;;13.10;99.90;;;;;;5074126;28;20255;-75
2022/12/31 06:09:59;;;;;;;1.17;1.03;;;13.10;99.90;;;;;;5073928;28;20221;-74
2022/12/31 06:12:26;;;;;;;1.20;1.10;;;13.10;99.90;;;;;;5074204;28;20254;-74
2022/12/31 06:14:52;;;;;;;1.17;1.07;;;13.10;99.90;;;;;;5074171;28;20275;-74
2022/12/31 06:17:19;;;;;;;2.60;1.30;;;13.20;99.90;;;;;;5074290;28;20247;-74
2022/12/31 06:19:47;;;;;;;1.30;1.10;;;13.20;99.90;;;;;;5073925;28;20197;-74
2022/12/31 06:22:13;;;;;;;1.50;1.20;;;13.20;99.90;;;;;;5073826;28;20197;-74
2022/12/31 06:24:42;;;;;;;1.67;1.10;;;13.30;99.90;;;;;;5074026;28;20208;-74
2022/12/31 06:27:08;;;;;;;3.13;1.30;;;13.20;99.90;;;;;;5073911;28;20193;-74
2022/12/31 06:29:35;;;;;;;1.20;1.03;;;13.30;99.90;;;;;;5073769;28;20236;-74
2022/12/31 06:32:01;;;;;;;1.50;1.20;;;13.30;99.90;;;;;;5073842;28;20200;-74
2022/12/31 06:34:28;;;;;;;1.20;1.03;;;13.30;99.90;;;;;;5079679;28;20197;-74
2022/12/31 06:36:55;;;;;;;1.90;1.17;;;13.40;99.90;;;;;;5073512;28;20201;-74
2022/12/31 06:39:21;;;;;;;2.50;2.30;;;13.40;99.90;;;;;;5073411;28;20277;-74
2022/12/31 06:41:49;;;;;;;3.17;2.50;;;13.40;99.90;;;;;;5073560;28;20251;-75
2022/12/31 06:44:16;;;;;;;1.27;1.10;;;13.50;99.90;;;;;;5073376;28;20197;-74
2022/12/31 06:46:42;;;;;;;1.30;1.20;;;13.50;99.90;;;;;;5073578;28;20263;-74
2022/12/31 06:49:09;;;;;;;1.23;1.00;;;13.50;99.90;;;;;;5073732;28;20213;-74
2022/12/31 06:51:36;;;;;;;3.00;2.17;;;13.50;99.90;;;;;;5073438;28;20242;-74
2022/12/31 06:54:02;;;;;;;0.90;0.90;;;13.60;99.90;;;;;;5073929;28;20251;-74
2022/12/31 06:56:29;;;;;;;1.13;0.90;;;13.60;99.90;;;;;;5073389;28;20553;-74
2022/12/31 06:58:58;;;;;;;1.10;1.00;;;13.70;99.90;;;;;;5073239;28;20282;-74
2022/12/31 07:01:36;;;;;;;1.20;1.10;;;13.80;99.90;;;;;;5073315;28;20560;-74
2022/12/31 07:04:29;;;;;;;1.53;1.17;;;13.70;99.90;;;;;;5073271;28;20205;-74
2022/12/31 07:07:01;;;;;;;2.47;1.03;;;13.70;99.90;;;;;;5074352;28;20197;-72
2022/12/31 07:09:35;;;;;;;1.10;1.00;;;13.80;99.90;;;;;;5072684;28;20217;-74
2022/12/31 07:12:09;;;;;;;1.80;1.20;;;13.90;99.90;;;;;;5073652;28;20227;-76
2022/12/31 07:14:41;;;;;;;2.67;1.20;;;13.90;99.90;;;;;;5073085;28;20219;-75
2022/12/31 07:17:20;;;;;;;2.23;1.27;;;13.90;99.90;;;;;;5073778;28;20712;-75
2022/12/31 07:19:55;;;;;;;1.33;1.23;;;13.90;99.90;;;;;;5073543;28;20242;-75
2022/12/31 07:22:22;;;;;;;1.17;1.07;;;14.00;99.90;;;;;;5073502;28;20197;-75
2022/12/31 07:24:49;;;;;;;1.60;1.20;;;14.00;99.90;;;;;;5072931;28;20623;-74
2022/12/31 07:27:30;;;;;;;1.57;1.20;;;13.90;99.90;;;;;;5074822;28;20259;-75
2022/12/31 07:30:04;;;;;;;1.33;1.10;;;14.00;99.90;;;;;;5073447;28;20224;-76
2022/12/31 07:32:53;;;;;;;1.50;1.20;;;14.00;99.90;;;;;;5073123;28;20258;-76
2022/12/31 07:35:30;;;;;;;1.30;1.20;;;14.00;99.90;;;;;;5072840;28;20223;-75
2022/12/31 07:38:05;;;;;;;1.47;1.37;;;14.00;99.90;;;;;;5073130;28;20254;-75
2022/12/31 07:40:44;;;;;;;2.60;1.27;;;14.00;99.90;;;;;;5073187;28;20235;-76
2022/12/31 07:43:16;;;;;;;1.30;1.20;;;14.00;99.90;;;;;;5073929;28;20223;-75
2022/12/31 07:45:49;;;;;;;1.30;1.20;;;14.10;99.90;;;;;;5072938;28;20255;-75
2022/12/31 07:48:23;;;;;;;1.20;1.10;;;14.10;99.90;;;;;;5073384;28;20247;-75
2022/12/31 07:50:53;;;;;;;2.27;1.20;;;14.10;99.90;;;;;;5075139;28;20238;-74
2022/12/31 07:53:20;;;;;;;1.53;1.10;;;14.10;99.90;;;;;;5077237;28;20201;-75
2022/12/31 07:55:48;;;;;;;1.50;1.10;;;14.10;99.90;;;;;;5075992;28;20735;-75
2022/12/31 07:58:21;;;;;;;1.50;1.17;;;14.10;99.90;;;;;;5078891;28;20225;-78
2022/12/31 08:00:51;;;;;;;1.63;1.20;;;14.10;99.90;;;;;;5080756;28;20201;-76
2022/12/31 08:03:33;;;;;;;1.40;1.20;;;14.10;99.90;;;;;;5079740;28;20228;-76
2022/12/31 08:06:10;;;;;;;2.20;1.20;;;14.20;99.90;;;;;;5076741;28;20198;-75
2022/12/31 08:08:48;;;;;;;3.20;1.30;;;14.20;99.90;;;;;;5074172;28;20201;-77
2022/12/31 08:11:20;;;;;;;2.03;1.20;;;14.20;99.90;;;;;;5074828;28;20229;-75
2022/12/31 08:13:47;;;;;;;2.47;1.50;;;14.30;99.90;;;;;;5076107;28;20197;-76
2022/12/31 08:16:16;;;;;;;1.27;1.13;;;14.40;99.90;;;;;;5073810;28;20201;-76
2022/12/31 08:18:43;;;;;;;1.27;1.17;;;14.50;99.90;;;;;;5074396;28;20718;-76
2022/12/31 08:21:20;;;;;;;1.90;1.70;;;14.60;99.90;;;;;;5077270;28;20197;-76
2022/12/31 08:23:53;;;;;;;1.60;1.30;;;14.60;99.90;;;;;;5077301;28;20201;-75
2022/12/31 08:26:30;;;;;;;1.77;1.23;;;14.70;99.90;;;;;;5077876;28;20584;-75
2022/12/31 08:29:05;;;;;;;1.70;1.20;;;14.80;99.90;;;;;;5076874;28;20196;-76
2022/12/31 08:31:39;;;;;;;1.40;1.10;;;14.90;99.90;;;;;;5076801;28;20258;-75
2022/12/31 08:34:13;;;;;;;2.23;1.10;;;15.00;99.90;;;;;;5077588;28;20255;-76
2022/12/31 08:36:47;;;;;;;1.20;1.10;;;15.10;99.90;;;;;;5077114;28;20197;-76
2022/12/31 08:39:27;;;;;;;1.77;1.10;;;15.10;99.90;;;;;;5077359;28;20205;-76
2022/12/31 08:41:56;;;;;;;1.23;1.13;;;15.00;99.90;;;;;;5077171;28;20208;-75
2022/12/31 08:44:31;;;;;;;1.23;1.13;;;15.00;99.90;;;;;;5077490;28;20240;-77
2022/12/31 08:47:09;;;;;;;2.13;1.30;;;15.00;99.90;;;;;;5078536;28;20197;-75
2022/12/31 08:49:35;;;;;;;1.63;1.10;;;15.10;99.90;;;;;;5078763;28;20246;-78
2022/12/31 08:52:03;;;;;;;0.97;0.90;;;15.20;99.90;;;;;;5080690;28;20197;-77
2022/12/31 08:54:31;;;;;;;1.27;1.00;;;15.30;99.90;;;;;;5235837;22;20314;-75
2022/12/31 08:57:04;;;;;;;1.07;0.97;;;15.30;99.90;;;;;;5077314;28;20664;-75
2022/12/31 08:59:41;;;;;;;1.20;1.07;;;15.20;99.90;;;;;;5077015;28;20595;-75
2022/12/31 09:02:48;;;;;;;1.30;1.20;;;15.10;99.90;;;;;;5077871;28;20219;-77
2022/12/31 09:05:21;;;;;;;2.10;1.20;;;15.20;99.90;;;;;;5079270;28;20204;-76
2022/12/31 09:08:00;;;;;;;1.90;1.10;;;15.20;99.90;;;;;;5079945;28;20201;-76
2022/12/31 09:10:31;;;;;;;2.43;1.13;;;15.30;99.90;;;;;;5079678;28;20221;-76
2022/12/31 09:13:09;;;;;;;2.53;1.20;;;15.30;99.90;;;;;;5079118;28;20251;-79
2022/12/31 09:15:42;;;;;;;1.20;1.10;;;15.30;99.90;;;;;;5075727;28;20254;-78
2022/12/31 09:18:12;;;;;;;1.43;1.10;;;15.30;99.90;;;;;;5075138;28;20644;-78
2022/12/31 09:20:39;;;;;;;2.63;1.30;;;15.30;99.90;;;;;;5078203;28;20193;-79
2022/12/31 09:23:07;;;;;;;2.13;1.10;;;15.30;99.90;;;;;;5076931;28;20781;-78
2022/12/31 09:25:38;;;;;;;2.00;1.33;;;15.30;99.90;;;;;;5077036;28;20197;-76
2022/12/31 09:28:15;;;;;;;1.30;1.20;;;15.20;99.90;;;;;;5076284;28;20200;-78
2022/12/31 09:30:48;;;;;;;1.37;1.20;;;15.30;99.90;;;;;;5075623;28;20228;-76
2022/12/31 09:33:27;;;;;;;2.40;1.17;;;15.40;99.90;;;;;;5077236;28;20231;-78
2022/12/31 09:35:57;;;;;;;1.67;1.27;;;15.50;99.90;;;;;;5076165;28;20197;-78
2022/12/31 09:38:30;;;;;;;1.17;1.07;;;15.40;99.90;;;;;;5076116;28;20181;-78
2022/12/31 09:41:12;;;;;;;1.47;1.23;;;15.50;99.90;;;;;;5075907;28;20227;-78
2022/12/31 09:44:19;;;;;;;1.87;1.20;;;15.50;99.90;;;;;;5076447;28;20205;-78
2022/12/31 09:47:30;;;;;;;1.23;1.10;;;15.50;99.90;;;;;;5076957;28;20186;-78
2022/12/31 09:50:36;;;;;;;1.30;1.10;;;15.60;99.90;;;;;;5074870;28;20203;-79
2022/12/31 09:53:37;;;;;;;1.17;1.00;;;15.60;99.90;;;;;;5074450;28;20201;-75
2022/12/31 09:56:10;;;;;;;1.30;1.20;;;15.60;99.90;;;;;;5064053;28;20225;-78
2022/12/31 09:58:44;;;;;;;1.23;1.13;;;15.60;99.90;;;;;;5075087;28;20193;-79
2022/12/31 10:01:24;;;;;;;3.38;1.20;;;15.70;99.90;;;;;;5081025;28;20267;-77
2022/12/31 10:04:19;;;;;;;1.60;1.07;;;15.70;99.90;;;;;;5074382;28;20538;-78
2022/12/31 10:06:56;;;;;;;2.20;0.98;;;15.70;99.90;;;;;;5074249;28;20239;-78
2022/12/31 10:09:45;;;;;;;1.33;1.10;;;15.80;99.90;;;;;;5074354;28;20197;-77
2022/12/31 10:12:35;;;;;;;1.92;1.35;;;15.90;99.90;;;;;;5074411;28;20603;-77
2022/12/31 10:15:26;;;;;;;1.98;1.48;;;16.00;99.90;;;;;;5075159;28;20643;-78
2022/12/31 10:18:03;;;;;;;3.47;1.23;;;16.30;99.90;;;;;;5078539;28;20295;-72
2022/12/31 10:20:38;;;;;;;1.13;1.00;;;16.40;99.90;;;;;;5074650;28;20210;-78
2022/12/31 10:23:22;;;;;;;1.88;1.02;;;16.40;99.90;;;;;;5074315;28;20254;-79
2022/12/31 10:26:23;;;;;;;1.42;1.10;;;16.30;99.90;;;;;;5074270;28;20193;-79
2022/12/31 10:28:55;;;;;;;1.10;1.00;;;16.40;99.90;;;;;;5030748;28;20563;-77
2022/12/31 10:31:38;;;;;;;1.80;1.23;;;16.60;99.90;;;;;;5073911;28;20225;-78
2022/12/31 10:34:14;;;;;;;1.30;1.20;;;16.60;99.90;;;;;;5077503;28;20223;-78
2022/12/31 10:36:54;;;;;;;2.00;1.42;;;16.50;99.90;;;;;;5073793;28;20203;-78
2022/12/31 10:39:37;;;;;;;1.50;1.40;;;16.80;99.90;;;;;;5082503;28;20599;-80
2022/12/31 10:42:46;;;;;;;1.88;1.20;;;17.30;99.90;;;;;;5073799;28;20216;-78
2022/12/31 10:45:51;;;;;;;1.73;1.10;;;17.60;99.90;;;;;;5070814;28;20192;-79
2022/12/31 10:48:52;;;;;;;1.33;1.23;;;17.20;99.90;;;;;;5077261;28;20196;-78
2022/12/31 10:51:55;;;;;;;1.52;1.13;;;17.00;99.90;;;;;;5072501;28;20228;-78
2022/12/31 10:54:56;;;;;;;1.88;1.15;;;16.90;99.90;;;;;;5071276;28;20205;-78
2022/12/31 10:57:58;;;;;;;1.92;1.10;;;16.90;99.90;;;;;;5070777;28;20668;-77
2022/12/31 11:00:29;;;;;;;1.40;1.30;;;17.10;99.90;;;;;;5070602;28;20666;-78
2022/12/31 11:03:45;;;;;;;2.42;1.30;;;17.30;99.90;;;;;;5070714;28;20741;-78
2022/12/31 11:06:42;;;;;;;1.38;1.27;;;17.10;99.90;;;;;;5072755;28;20736;-78
2022/12/31 11:09:50;;;;;;;1.25;1.15;;;17.10;99.90;;;;;;5073349;28;20565;-77
2022/12/31 11:12:37;;;;;;;6.32;3.67;;;17.10;99.90;;;;;;5071769;28;20557;-76
2022/12/31 11:15:17;;;;;;;1.33;1.23;;;17.40;99.90;;;;;;5072995;28;20262;-77
2022/12/31 11:17:56;;;;;;;3.35;1.33;;;17.20;99.90;;;;;;5073496;28;20201;-76
2022/12/31 11:20:41;;;;;;;2.20;1.40;;;17.10;99.90;;;;;;5073164;28;20196;-76
2022/12/31 11:23:22;;;;;;;1.88;1.30;;;17.20;99.90;;;;;;5073149;28;20197;-77
2022/12/31 11:26:01;;;;;;;2.05;1.40;;;17.40;99.90;;;;;;5073121;28;20197;-78
2022/12/31 11:28:54;;;;;;;2.05;1.48;;;17.60;99.90;;;;;;5073029;28;20550;-77
2022/12/31 11:31:37;;;;;;;1.42;1.30;;;18.10;99.90;;;;;;5072616;28;20769;-81
2022/12/31 11:34:17;;;;;;;1.33;1.10;;;18.60;99.90;;;;;;5073132;28;20200;-78
2022/12/31 11:36:54;;;;;;;2.47;1.10;;;19.00;99.90;;;;;;5072692;28;20648;-80
2022/12/31 11:39:34;;;;;;;2.63;1.20;;;19.40;99.90;;;;;;5072554;28;20664;-78
2022/12/31 11:42:11;;;;;;;1.20;1.05;;;19.40;99.90;;;;;;5072681;28;20193;-78
2022/12/31 11:44:46;;;;;;;1.70;1.50;;;19.20;99.90;;;;;;5072658;28;20200;-79
2022/12/31 11:47:31;;;;;;;1.42;1.20;;;18.90;99.90;;;;;;5072663;28;20268;-78
2022/12/31 11:50:19;;;;;;;1.75;1.20;;;19.80;99.90;;;;;;5072623;28;20201;-76
2022/12/31 11:52:55;;;;;;;1.20;1.10;;;20.30;99.90;;;;;;5072383;28;20255;-81
2022/12/31 11:55:37;;;;;;;2.45;1.20;;;21.30;99.90;;;;;;5075501;28;20230;-80
2022/12/31 11:58:13;;;;;;;2.95;1.10;;;20.60;99.90;;;;;;5076357;28;20667;-80
2022/12/31 12:00:48;;;;;;;2.55;1.40;;;21.00;99.90;;;;;;5076456;28;20196;-79
2022/12/31 12:03:15;;;;;;;1.30;1.20;;;21.40;99.90;;;;;;5076364;28;20204;-79
2022/12/31 12:05:42;;;;;;;1.27;1.17;;;20.70;99.90;;;;;;5076975;28;20196;-78
2022/12/31 12:08:08;;;;;;;2.50;1.48;;;21.00;99.90;;;;;;5082901;28;20196;-79
2022/12/31 12:10:41;;;;;;;2.30;1.27;;;20.40;99.90;;;;;;5077395;28;20197;-80
2022/12/31 12:13:20;;;;;;;1.50;1.17;;;20.00;99.90;;;;;;5076331;28;20201;-78
2022/12/31 12:15:49;;;;;;;3.05;1.30;;;20.00;99.90;;;;;;5076090;28;20247;-80
2022/12/31 12:18:30;;;;;;;4.03;1.10;;;20.70;99.90;;;;;;5075961;28;20555;-78
2022/12/31 12:21:07;;;;;;;3.67;1.30;;;21.30;99.90;;;;;;5076089;28;20238;-78
2022/12/31 12:23:34;;;;;;;1.67;1.30;;;20.60;99.90;;;;;;5075919;28;20246;-79
2022/12/31 12:26:01;;;;;;;2.28;1.00;;;21.30;99.90;;;;;;5075744;28;20648;-78
2022/12/31 12:28:30;;;;;;;2.67;1.33;;;20.40;99.90;;;;;;5075872;28;20208;-79
2022/12/31 12:31:00;;;;;;;2.58;1.23;;;20.10;99.90;;;;;;5075928;28;20217;-76
2022/12/31 12:33:29;;;;;;;1.77;1.27;;;20.20;99.90;;;;;;5075746;28;20710;-79
2022/12/31 12:36:07;;;;;;;1.88;1.30;;;20.00;99.90;;;;;;5075851;28;20197;-79
2022/12/31 12:38:34;;;;;;;1.30;1.20;;;20.00;99.90;;;;;;5076114;28;20200;-79
2022/12/31 12:41:03;;;;;;;1.10;0.98;;;20.20;99.90;;;;;;5075720;28;20197;-80
2022/12/31 12:43:34;;;;;;;2.45;1.40;;;19.70;99.90;;;;;;5075506;28;20251;-79
2022/12/31 12:46:04;;;;;;;2.28;1.08;;;20.20;99.90;;;;;;5076729;28;20201;-79
2022/12/31 12:48:38;;;;;;;2.25;1.10;;;20.00;99.90;;;;;;5075670;28;20250;-78
2022/12/31 12:51:20;;;;;;;1.30;1.13;;;20.60;99.90;;;;;;5075526;28;20229;-79
2022/12/31 12:53:58;;;;;;;1.00;0.90;;;20.30;99.90;;;;;;5075244;28;20652;-78
2022/12/31 12:56:36;;;;;;;1.33;1.13;;;19.80;99.90;;;;;;5075381;28;20224;-78
2022/12/31 12:59:22;;;;;;;1.73;1.20;;;19.40;99.90;;;;;;5075553;28;20201;-77
2022/12/31 13:01:58;;;;;;;1.85;1.20;;;19.60;99.90;;;;;;5075286;28;20201;-79
2022/12/31 13:04:46;;;;;;;2.05;1.50;;;20.20;99.90;;;;;;5075186;28;20243;-79
2022/12/31 13:07:27;;;;;;;1.60;1.45;;;19.80;99.90;;;;;;5074331;28;20197;-79
2022/12/31 13:10:14;;;;;;;1.55;1.30;;;19.90;99.90;;;;;;5075011;28;20251;-81
2022/12/31 13:12:47;;;;;;;1.67;1.40;;;19.90;99.90;;;;;;5075226;28;20603;-79
2022/12/31 13:15:21;;;;;;;1.35;1.20;;;20.00;99.90;;;;;;5075626;28;20653;-80
2022/12/31 13:18:02;;;;;;;3.28;1.25;;;19.70;99.90;;;;;;5075460;28;20197;-78
2022/12/31 13:20:34;;;;;;;1.23;1.13;;;20.00;99.90;;;;;;5074757;28;20239;-77
2022/12/31 13:23:05;;;;;;;1.50;1.17;;;19.80;99.90;;;;;;5074632;28;20733;-77
2022/12/31 13:25:45;;;;;;;1.50;1.40;;;20.00;99.90;;;;;;5074719;28;20223;-79